Ana Sayfa
METAR-TAF:

METAR-TAF

Havaalanları :

Somerset-Pulaski County Airport (J.T. Wilson Field)

Somerset, Kentucky, Amerika Birleşik Devletleri

Enlem: 37-03-15N, Boylam: 084-36-54W, yükseklik: 283 m

Güncel hava durumu gözlemi

Rapor saat 04:15 UTC de 22 dakika önce yapıldı.
Sakin rüzgar
Sıcaklık 21°C
Nem 100%
Basınç 1018 hPa
Görüş mesafesi: 16.1 km
Açık gökyüzü

METAR: KSME 210415Z AUTO 00000KT 10SM CLR 21/21 A3006 RMK AO2

Saat: 00:37 (04:37 UTC)

Tahmin

Rapor saat 23:31 UTC de 5 saat ve 6 dakika önce yapıldı.
Ayın 21'si saat 00 UTC'den ayın 21'si saat 24 UTC'ye kadar geçerli Tahmin
Rüzgar değişken yönden 4 kt
Görüş mesafesi: 10 km
5000 ft yükseklikte parçalı çok bulutlu

TAF: KSME 202331Z 2100/2124 VRB04KT P6SM BKN050

4.000'den fazla havaalanı için hava durumu gözlemleri ve tahminleri (METAR ve TAF raporları).

Kullanılabilir istasyonlar harita üzerinde sarı ve kırmızı noktalarla gösterilir.

İstasyonun adını görmek için fareyi noktanın üzerinde gezdirin.

Sonrasında hava gözlem ve tahminlerini görmek için tıklayın.

Haritayı değiştirmek için: yaklaştırmak için siyah artı işaretli yeşil düğmeye ve uzaklaştırmak için de eksi işaretli düğmeye hızla tıklayın; bitişik haritalar için yeşil okları kullanın.


METAR-TAF: